Peacham, Vermont
Current Conditions -  °F | °C
As of 9:35 AM on Friday 24 Oct 2014 (Local Time) from KCDA Reporting Station
Haze Haze  
Wind Chill: 39°   Ceiling: 1100
Heat Index: 43°   Visibility: 3mi
Dew Point: 39°   Wind: 6mph
Humidity: 87%   Direction: 280°W
Pressure: 29.8"   Gusts: NA
Location:  44.33°N, 72.17°W
Report Text: KCDA 241335Z AUTO 28005KT 3SM BR OVC011 06/04 A2980 RMK AO2 T00600040
Loading
Personal Weather Stations






























Interactive Weather Map
Tropical Storm Tracking
New forecast layout! Learn more

10-Day Weather Forecast

Advertisements
Track Severe Weather on mobile